Time;durP1;ratioP1;P1;durP2;ratioP2;P2;SDS_P1;SDS_P2;PMS_P1;PMS_P2;Temp;Humidity;BMP_temperature;BMP_pressure;BME280_temperature;BME280_humidity;BME280_pressure;Samples;Min_cycle;Max_cycle;Signal;HPM_P1;HPM_P2
2023/06/22 00:03:12;;;;;;;8.80;4.60;;;;;;;18.04;76.04;97409.20;108802;1250;100271;-76
2023/06/22 00:05:39;;;;;;;7.30;4.60;;;;;;;18.05;76.22;97412.50;108845;1250;99970;-76
2023/06/22 00:08:54;;;;;;;10.70;4.30;;;;;;;17.99;76.04;97415.06;108851;1251;94261;-78
2023/06/22 00:11:32;;;;;;;7.40;4.10;;;;;;;17.95;76.25;97412.14;108275;1257;94774;-75
2023/06/22 00:14:29;;;;;;;6.30;4.30;;;;;;;17.95;76.41;97406.34;108284;1256;102550;-76
2023/06/22 00:17:01;;;;;;;11.20;4.80;;;;;;;17.87;76.21;97403.96;108061;1257;101691;-76
2023/06/22 00:19:42;;;;;;;7.50;4.70;;;;;;;17.77;76.41;97408.13;108215;1257;99256;-75
2023/06/22 00:25:42;;;;;;;5.40;4.70;;;;;;;17.69;76.80;97407.27;108233;1257;94746;-80
2023/06/22 00:28:08;;;;;;;6.20;4.60;;;;;;;17.65;76.86;97405.03;108273;1257;110941;-75
2023/06/22 00:30:37;;;;;;;11.90;4.90;;;;;;;17.65;77.03;97409.95;108269;1257;94848;-76
2023/06/22 00:33:07;;;;;;;9.90;5.00;;;;;;;17.69;77.23;97411.58;108245;1257;100078;-76
2023/06/22 00:35:37;;;;;;;13.00;5.40;;;;;;;17.72;77.31;97411.83;108228;1257;94381;-76
2023/06/22 00:38:09;;;;;;;10.30;5.20;;;;;;;17.75;77.30;97412.41;108264;1256;94437;-76
2023/06/22 00:40:37;;;;;;;12.50;4.60;;;;;;;17.77;77.38;97411.66;108269;1256;102526;-76
2023/06/22 00:46:55;;;;;;;6.30;4.40;;;;;;;17.76;77.56;97413.08;108127;1257;100613;-75
2023/06/22 00:49:24;;;;;;;5.50;4.50;;;;;;;17.80;77.48;97420.71;108744;1250;94560;-79
2023/06/22 00:51:51;;;;;;;6.80;4.20;;;;;;;17.80;77.31;97417.27;108879;1250;94897;-76
2023/06/22 00:54:45;;;;;;;6.80;4.50;;;;;;;17.80;77.40;97418.58;108414;1256;101266;-76
2023/06/22 01:01:28;;;;;;;7.40;4.60;;;;;;;17.72;77.42;97409.16;108234;1256;100206;-77
2023/06/22 01:03:57;;;;;;;11.40;4.60;;;;;;;17.68;77.53;97403.65;108410;1256;94479;-76
2023/06/22 01:06:56;;;;;;;10.00;4.90;;;;;;;17.67;77.47;97396.00;108026;1256;94492;-78
2023/06/22 01:13:23;;;;;;;7.40;4.60;;;;;;;17.62;77.47;97394.02;107925;1261;100093;-79
2023/06/22 01:16:25;;;;;;;10.90;4.30;;;;;;;17.63;77.64;97390.98;107957;1262;100165;-76
2023/06/22 01:19:10;;;;;;;8.80;4.70;;;;;;;17.61;77.70;97392.86;108062;1261;94315;-76
2023/06/22 01:22:15;;;;;;;7.70;4.30;;;;;;;17.59;77.66;97395.45;107669;1261;94821;-75
2023/06/22 01:25:03;;;;;;;7.10;4.30;;;;;;;17.53;77.64;97390.36;107856;1257;102285;-76
2023/06/22 01:27:32;;;;;;;10.90;4.90;;;;;;;17.41;77.71;97383.41;108387;1256;101463;-76
2023/06/22 01:30:43;;;;;;;11.10;5.30;;;;;;;17.37;78.14;97382.65;108427;1256;101721;-77
2023/06/22 01:37:12;;;;;;;10.20;4.40;;;;;;;17.41;78.17;97378.15;108353;1256;94768;-75
2023/06/22 01:43:41;;;;;;;8.20;5.20;;;;;;;17.42;78.29;97373.63;108465;1251;100436;-78
2023/06/22 01:46:29;;;;;;;5.80;4.00;;;;;;;17.34;78.34;97377.27;107824;1265;99935;-76
2023/06/22 01:48:56;;;;;;;8.70;4.60;;;;;;;17.30;78.35;97384.69;107796;1265;94684;-75
2023/06/22 01:51:22;;;;;;;6.50;4.60;;;;;;;17.29;78.40;97391.92;107825;1265;94387;-79
2023/06/22 01:53:54;;;;;;;;;;;;;;;17.25;78.33;97393.80;107784;1265;102135;-75
2023/06/22 01:56:20;;;;;;;9.10;4.60;;;;;;;17.22;78.35;97392.67;107831;1265;94533;-76
2023/06/22 01:59:26;;;;;;;6.30;4.30;;;;;;;17.23;78.48;97389.84;107860;1264;94532;-79
2023/06/22 02:02:02;;;;;;;9.80;5.20;;;;;;;17.21;78.69;97390.41;107763;1265;94561;-76
2023/06/22 02:08:31;;;;;;;10.20;5.10;;;;;;;17.12;78.51;97404.38;106739;1273;102434;-76
2023/06/22 02:11:00;;;;;;;7.10;4.40;;;;;;;17.10;78.66;97408.94;106631;1273;101766;-76
2023/06/22 02:13:47;;;;;;;12.90;4.40;;;;;;;17.09;78.73;97406.95;106319;1280;98893;-77
2023/06/22 02:16:25;;;;;;;6.70;4.70;;;;;;;17.10;78.83;97409.32;106297;1282;94362;-76
2023/06/22 02:18:52;;;;;;;7.40;4.60;;;;;;;17.06;78.76;97420.27;106507;1276;94796;-76
2023/06/22 02:21:21;;;;;;;9.90;4.40;;;;;;;17.02;78.67;97426.00;106633;1276;94672;-79
2023/06/22 02:23:53;;;;;;;9.50;4.70;;;;;;;16.97;78.88;97430.73;106814;1272;101686;-76
2023/06/22 02:26:20;;;;;;;6.80;4.70;;;;;;;16.97;78.94;97432.85;107077;1273;94724;-77
2023/06/22 02:29:01;;;;;;;7.60;5.20;;;;;;;16.95;79.04;97431.19;107092;1272;94775;-76
2023/06/22 02:34:33;;;;;;;6.80;4.40;;;;;;;16.90;79.04;97436.26;107444;1265;101147;-78
2023/06/22 02:39:55;;;;;;;7.00;4.30;;;;;;;16.77;79.33;97426.46;107254;1267;99934;-76
2023/06/22 02:42:21;;;;;;;9.70;5.10;;;;;;;16.74;79.69;97432.10;107793;1260;94493;-75
2023/06/22 02:47:50;;;;;;;7.10;5.10;;;;;;;16.79;79.86;97433.26;108845;1250;101318;-78
2023/06/22 02:50:16;;;;;;;13.70;4.90;;;;;;;16.78;79.85;97439.14;108898;1249;102311;-76
2023/06/22 02:52:46;;;;;;;10.20;5.30;;;;;;;16.79;79.99;97440.40;108863;1250;100249;-76
2023/06/22 02:55:52;;;;;;;6.60;4.80;;;;;;;16.80;79.96;97439.15;108397;1255;95285;-76
2023/06/22 02:58:25;;;;;;;9.00;5.60;;;;;;;16.78;80.06;97446.38;108420;1256;94343;-76
2023/06/22 03:00:52;;;;;;;7.30;5.20;;;;;;;16.77;80.32;97447.69;108450;1256;102772;-75
2023/06/22 03:03:40;;;;;;;11.40;5.90;;;;;;;16.75;80.41;97448.02;108227;1256;100408;-76
2023/06/22 03:09:20;;;;;;;10.90;6.90;;;;;;;16.73;80.82;97450.45;108416;1256;94866;-75
2023/06/22 03:11:46;;;;;;;12.40;6.00;;;;;;;16.77;80.76;97443.16;108395;1255;94911;-76
2023/06/22 03:14:18;;;;;;;11.60;6.80;;;;;;;16.80;80.62;97446.39;108194;1256;109133;-76
2023/06/22 03:16:45;;;;;;;13.00;6.40;;;;;;;16.79;80.74;97442.73;108409;1255;94545;-79
2023/06/22 03:20:21;;;;;;;9.90;6.20;;;;;;;16.79;80.77;97441.15;108183;1256;94398;-76
2023/06/22 03:24:15;;;;;;;13.40;7.00;;;;;;;16.78;80.89;97443.83;108341;1256;95070;-76
2023/06/22 03:26:42;;;;;;;12.90;7.10;;;;;;;16.76;81.15;97453.40;108683;1250;95211;-76
2023/06/22 03:29:16;;;;;;;12.60;7.10;;;;;;;16.79;81.12;97460.44;108691;1250;102998;-78
2023/06/22 03:32:04;;;;;;;14.00;7.60;;;;;;;16.83;81.26;97462.43;108688;1249;103078;-78
2023/06/22 03:35:14;;;;;;;12.00;7.10;;;;;;;16.87;81.22;97461.58;108412;1252;100152;-77
2023/06/22 03:40:42;;;;;;;10.80;6.80;;;;;;;16.95;81.12;97460.31;108080;1260;94644;-76
2023/06/22 03:43:25;;;;;;;8.90;6.20;;;;;;;16.97;81.22;97455.82;107863;1264;100901;-76
2023/06/22 03:48:43;;;;;;;11.20;6.60;;;;;;;17.04;81.11;97455.64;107822;1265;100378;-78
2023/06/22 03:58:06;;;;;;;14.40;6.90;;;;;;;17.08;81.33;97467.37;107271;1271;101215;-78
2023/06/22 04:03:24;;;;;;;14.10;7.20;;;;;;;17.14;81.27;97471.98;106851;1271;99079;-76
2023/06/22 04:06:05;;;;;;;11.40;7.50;;;;;;;17.16;81.23;97472.45;107268;1271;94660;-76
2023/06/22 04:09:03;;;;;;;11.40;6.70;;;;;;;17.19;81.09;97470.41;107318;1271;94795;-76
2023/06/22 04:11:29;;;;;;;8.80;6.90;;;;;;;17.21;81.40;97476.35;107284;1271;101368;-77
2023/06/22 04:13:56;;;;;;;12.30;7.70;;;;;;;17.21;81.40;97475.27;107332;1271;94491;-75
2023/06/22 04:16:22;;;;;;;12.70;7.60;;;;;;;17.20;81.50;97470.15;107337;1270;94367;-75
2023/06/22 04:18:58;;;;;;;12.00;7.90;;;;;;;17.23;81.47;97470.92;107667;1262;95976;-76
2023/06/22 04:21:24;;;;;;;12.20;8.30;;;;;;;17.28;81.31;97478.29;108246;1256;94717;-75
2023/06/22 04:24:20;;;;;;;9.10;7.00;;;;;;;17.30;81.30;97479.41;108376;1256;101350;-76
2023/06/22 04:26:54;;;;;;;16.60;8.40;;;;;;;17.33;81.31;97478.52;108216;1256;101478;-76
2023/06/22 04:32:55;;;;;;;14.50;8.20;;;;;;;17.40;81.38;97479.09;108391;1255;94654;-76
2023/06/22 04:35:50;;;;;;;12.60;8.00;;;;;;;17.46;81.37;97486.23;108205;1257;95298;-77
2023/06/22 04:38:18;;;;;;;15.80;7.30;;;;;;;17.48;81.50;97490.25;108413;1256;102523;-76
2023/06/22 04:41:23;;;;;;;14.60;7.90;;;;;;;17.51;81.60;97494.04;108337;1256;100205;-76
2023/06/22 04:44:05;;;;;;;10.50;7.40;;;;;;;17.57;81.57;97490.96;108195;1255;107991;-76
2023/06/22 04:47:16;;;;;;;13.40;7.60;;;;;;;17.62;81.54;97487.80;108242;1256;94714;-78
2023/06/22 04:49:43;;;;;;;17.00;9.00;;;;;;;17.67;81.52;97491.81;108222;1255;94466;-80
2023/06/22 04:52:11;;;;;;;15.20;8.20;;;;;;;17.72;81.55;97493.25;108388;1256;94360;-78
2023/06/22 04:55:20;;;;;;;13.20;7.90;;;;;;;17.77;81.52;97490.83;108149;1257;100252;-78
2023/06/22 04:57:48;;;;;;;10.40;7.80;;;;;;;17.82;81.54;97493.58;108155;1256;100165;-77
2023/06/22 05:00:44;;;;;;;16.50;8.50;;;;;;;17.87;81.64;97496.48;108176;1256;94406;-80
2023/06/22 05:04:06;;;;;;;12.40;8.80;;;;;;;17.92;81.32;97499.65;108209;1256;95288;-77
2023/06/22 05:06:56;;;;;;;15.20;8.10;;;;;;;17.99;81.37;97498.26;108010;1262;101288;-78
2023/06/22 05:09:22;;;;;;;10.40;7.90;;;;;;;18.07;81.18;97496.53;107851;1263;101310;-78
2023/06/22 05:11:48;;;;;;;9.50;8.30;;;;;;;18.13;81.26;97503.64;107971;1262;94737;-79
2023/06/22 05:14:24;;;;;;;13.20;7.50;;;;;;;18.19;81.42;97499.24;107988;1262;94322;-78
2023/06/22 05:16:52;;;;;;;10.20;7.60;;;;;;;18.27;81.18;97492.70;108003;1262;94856;-80
2023/06/22 05:22:32;;;;;;;12.60;8.10;;;;;;;18.44;81.23;97493.90;108111;1258;100244;-80
2023/06/22 05:25:23;;;;;;;10.80;8.40;;;;;;;18.51;81.26;97500.69;108220;1256;100088;-78
2023/06/22 05:28:14;;;;;;;12.70;7.90;;;;;;;18.59;81.38;97501.55;108317;1256;95210;-80
2023/06/22 05:30:41;;;;;;;11.90;7.00;;;;;;;18.67;81.37;97501.52;108323;1256;94790;-79
2023/06/22 05:33:10;;;;;;;10.10;7.90;;;;;;;18.75;81.51;97508.14;108346;1256;95756;-77
2023/06/22 05:35:38;;;;;;;10.20;7.00;;;;;;;18.84;81.61;97512.48;108365;1256;101754;-78
2023/06/22 05:38:14;;;;;;;9.30;7.40;;;;;;;18.94;81.59;97517.36;108693;1251;99851;-78
2023/06/22 05:43:48;;;;;;;10.20;7.00;;;;;;;19.17;81.33;97511.58;108021;1262;94666;-78
2023/06/22 05:46:14;;;;;;;10.70;7.40;;;;;;;19.28;81.22;97507.53;108042;1262;94700;-78
2023/06/22 05:48:43;;;;;;;13.00;7.40;;;;;;;19.38;80.97;97505.85;108006;1262;94415;-77
2023/06/22 05:51:12;;;;;;;13.60;8.40;;;;;;;19.48;81.15;97503.19;107819;1262;94762;-79
2023/06/22 05:53:38;;;;;;;11.20;7.30;;;;;;;19.57;80.86;97504.17;107278;1262;940679;-77
2023/06/22 05:56:05;;;;;;;11.00;7.40;;;;;;;19.65;80.94;97498.14;107981;1264;94406;-78
2023/06/22 05:58:31;;;;;;;13.10;8.20;;;;;;;19.72;80.97;97494.34;108001;1263;94850;-80
2023/06/22 06:00:57;;;;;;;12.80;8.20;;;;;;;19.79;80.72;97495.13;107998;1264;94750;-78
2023/06/22 06:03:24;;;;;;;15.20;7.90;;;;;;;19.86;80.54;97498.33;107888;1264;94337;-78
2023/06/22 06:05:56;;;;;;;16.60;7.50;;;;;;;19.92;80.29;97499.88;107872;1264;94720;-78
2023/06/22 06:08:22;;;;;;;;;;;;;;;20.00;80.24;97501.39;107988;1264;102606;-78
2023/06/22 06:10:49;;;;;;;11.90;8.00;;;;;;;20.06;80.15;97501.02;107993;1256;94335;-78
2023/06/22 06:13:15;;;;;;;14.30;8.00;;;;;;;20.17;80.10;97503.35;108328;1256;94797;-78
2023/06/22 06:16:15;;;;;;;8.40;7.20;;;;;;;20.27;80.35;97502.23;108635;1250;94559;-79
2023/06/22 06:18:44;;;;;;;11.30;7.30;;;;;;;20.40;80.23;97499.09;108185;1256;94776;-80
2023/06/22 06:21:13;;;;;;;10.30;7.10;;;;;;;20.51;80.04;97498.13;108405;1256;102449;-78
2023/06/22 06:23:39;;;;;;;10.20;7.10;;;;;;;20.60;79.56;97501.98;108312;1257;94568;-78
2023/06/22 06:26:06;;;;;;;13.20;7.30;;;;;;;20.69;79.45;97502.59;108247;1258;94705;-78
2023/06/22 06:28:36;;;;;;;10.60;7.30;;;;;;;20.80;78.99;97507.75;108280;1257;94368;-78
2023/06/22 06:31:02;;;;;;;14.80;7.20;;;;;;;20.92;78.66;97507.96;108286;1257;94307;-78
2023/06/22 06:33:28;;;;;;;11.70;7.20;;;;;;;21.04;78.81;97507.08;108346;1257;94791;-78
2023/06/22 06:36:26;;;;;;;9.40;6.60;;;;;;;21.19;78.54;97506.05;108317;1257;94978;-79
2023/06/22 06:38:58;;;;;;;8.80;7.40;;;;;;;21.33;77.82;97505.54;108164;1257;94584;-78
2023/06/22 06:41:24;;;;;;;;;;;;;;;21.47;77.42;97508.95;108198;1256;94676;-78
2023/06/22 06:43:54;;;;;;;8.40;6.00;;;;;;;21.59;77.09;97507.60;108289;1257;94334;-78
2023/06/22 06:46:21;;;;;;;7.90;6.80;;;;;;;21.70;76.96;97506.03;108315;1257;101554;-80
2023/06/22 06:48:47;;;;;;;11.90;7.00;;;;;;;21.84;76.43;97509.88;108058;1257;94390;-78
2023/06/22 06:51:13;;;;;;;14.20;6.60;;;;;;;21.94;75.88;97511.54;108260;1257;94774;-78
2023/06/22 06:53:43;;;;;;;8.60;6.50;;;;;;;22.05;75.53;97511.23;108356;1257;94555;-79
2023/06/22 06:56:36;;;;;;;8.00;6.40;;;;;;;22.16;75.29;97506.52;108654;1249;102036;-80
2023/06/22 06:59:20;;;;;;;9.60;6.80;;;;;;;22.32;75.11;97507.68;108167;1259;100534;-77
2023/06/22 07:01:51;;;;;;;7.60;6.30;;;;;;;22.45;74.63;97508.20;108161;1258;94277;-79
2023/06/22 07:04:17;;;;;;;7.60;6.40;;;;;;;22.55;74.12;97505.99;108243;1260;94431;-80
2023/06/22 07:06:43;;;;;;;9.10;6.70;;;;;;;22.69;73.93;97507.93;108022;1259;94833;-80
2023/06/22 07:09:10;;;;;;;9.10;6.50;;;;;;;22.82;73.47;97515.12;108009;1264;94433;-78
2023/06/22 07:11:39;;;;;;;8.50;6.90;;;;;;;22.95;73.24;97515.75;108260;1258;94416;-77
2023/06/22 07:14:15;;;;;;;;;;;;;;;;;;;;;
2023/06/22 07:16:41;;;;;;;10.70;7.90;;;;;;;23.21;72.80;97519.14;108214;1259;102359;-81
2023/06/22 07:19:14;;;;;;;10.20;6.50;;;;;;;23.32;72.41;97515.50;108231;1259;94411;-77
2023/06/22 07:24:32;;;;;;;;;;;;;;;23.51;71.50;97502.67;107500;1264;94592;-78
2023/06/22 07:27:03;;;;;;;11.70;7.20;;;;;;;23.57;71.32;97503.81;107961;1265;94725;-77
2023/06/22 07:29:30;;;;;;;11.10;6.90;;;;;;;23.65;71.24;97507.86;107956;1263;102226;-79
2023/06/22 07:32:00;;;;;;;8.10;7.10;;;;;;;23.74;70.94;97505.66;107941;1263;94309;-78
2023/06/22 07:34:26;;;;;;;8.70;6.60;;;;;;;23.84;71.23;97501.86;107918;1264;100171;-81
2023/06/22 07:36:56;;;;;;;10.50;7.30;;;;;;;23.91;70.93;97504.02;108191;1258;94518;-78
2023/06/22 07:39:28;;;;;;;6.80;6.00;;;;;;;23.97;70.30;97495.84;108415;1256;94766;-81
2023/06/22 07:41:54;;;;;;;10.40;7.10;;;;;;;24.07;70.16;97493.51;108414;1256;102556;-78
2023/06/22 07:44:26;;;;;;;9.30;6.80;;;;;;;24.17;70.28;97489.52;108443;1257;101534;-78
2023/06/22 07:46:54;;;;;;;12.30;7.40;;;;;;;24.25;69.65;97486.13;108407;1255;100141;-80
2023/06/22 07:49:20;;;;;;;11.70;7.30;;;;;;;24.33;69.17;97484.08;108359;1256;94288;-80
2023/06/22 07:52:06;;;;;;;12.10;7.50;;;;;;;24.41;68.81;97481.80;108427;1255;96000;-79
2023/06/22 07:54:34;;;;;;;10.70;7.90;;;;;;;24.51;68.60;97486.11;108432;1253;102369;-80
2023/06/22 07:57:07;;;;;;;11.70;7.80;;;;;;;24.60;68.10;97484.00;108496;1254;101444;-78
2023/06/22 07:59:33;;;;;;;11.10;7.50;;;;;;;24.71;68.08;97484.65;108824;1249;94282;-79
2023/06/22 08:01:59;;;;;;;9.90;8.10;;;;;;;24.88;67.96;97484.45;108883;1249;94229;-78
2023/06/22 08:04:30;;;;;;;8.90;8.00;;;;;;;25.15;67.51;97482.08;108765;1256;94430;-77
2023/06/22 08:06:57;;;;;;;9.20;8.00;;;;;;;25.51;66.95;97484.00;108663;1251;101780;-79
2023/06/22 08:09:28;;;;;;;10.60;8.60;;;;;;;25.85;66.04;97481.74;108937;1250;94321;-78
2023/06/22 08:12:07;;;;;;;12.80;9.50;;;;;;;26.22;65.48;97480.52;108809;1251;94383;-80
2023/06/22 08:14:36;;;;;;;13.50;8.70;;;;;;;26.61;64.97;97486.52;108618;1252;94641;-79
2023/06/22 08:17:02;;;;;;;11.90;9.00;;;;;;;26.97;64.19;97484.38;108951;1252;102459;-79
2023/06/22 08:19:31;;;;;;;9.40;8.20;;;;;;;27.35;64.13;97486.88;108658;1249;94575;-79
2023/06/22 08:21:58;;;;;;;11.70;8.80;;;;;;;27.68;63.74;97490.19;108910;1249;100018;-79
2023/06/22 08:24:24;;;;;;;10.10;9.00;;;;;;;27.93;63.03;97493.22;108892;1251;94614;-77
2023/06/22 08:29:37;;;;;;;11.80;9.40;;;;;;;28.58;61.82;97495.02;108512;1257;102192;-78
2023/06/22 08:32:03;;;;;;;11.40;9.90;;;;;;;28.79;61.20;97501.31;108947;1249;94988;-79
2023/06/22 08:37:11;;;;;;;15.50;12.00;;;;;;;29.38;59.79;97497.92;108918;1250;94560;-75
2023/06/22 08:42:26;;;;;;;19.20;10.50;;;;;;;29.98;58.37;97495.52;108901;1250;102625;-75
2023/06/22 08:44:55;;;;;;;11.90;9.60;;;;;;;30.34;57.73;97491.98;108930;1250;94557;-76
2023/06/22 08:47:28;;;;;;;12.10;9.60;;;;;;;30.54;56.70;97495.79;108407;1251;98887;-76
2023/06/22 08:49:55;;;;;;;12.80;9.50;;;;;;;30.45;56.17;97491.86;108922;1250;94687;-76
2023/06/22 08:52:23;;;;;;;13.70;9.40;;;;;;;30.33;56.16;97489.23;108929;1249;94327;-76
2023/06/22 08:54:52;;;;;;;11.00;9.50;;;;;;;30.22;56.21;97496.23;108931;1250;94454;-80
2023/06/22 08:57:37;;;;;;;11.20;10.10;;;;;;;30.42;56.49;97493.86;108916;1251;101468;-77
2023/06/22 09:00:37;;;;;;;;;;;;;;;30.85;55.56;97494.51;108630;1249;98829;-78
2023/06/22 09:03:14;;;;;;;14.70;11.80;;;;;;;31.23;54.80;97492.18;108881;1251;94233;-76
2023/06/22 09:05:40;;;;;;;16.90;11.90;;;;;;;31.56;54.38;97490.98;108922;1250;94986;-77
2023/06/22 09:10:50;;;;;;;12.20;11.10;;;;;;;32.06;53.62;97497.64;108528;1257;100698;-77
2023/06/22 09:13:16;;;;;;;14.00;12.60;;;;;;;32.13;52.94;97498.30;108073;1257;94344;-76
2023/06/22 09:15:45;;;;;;;14.30;12.80;;;;;;;32.31;52.14;97495.13;108460;1257;94642;-77
2023/06/22 09:18:14;;;;;;;15.30;13.80;;;;;;;32.49;51.62;97492.02;108245;1256;94429;-76
2023/06/22 09:20:41;;;;;;;16.20;14.30;;;;;;;32.70;50.99;97489.89;108526;1257;102656;-76
2023/06/22 09:23:10;;;;;;;16.60;13.90;;;;;;;32.88;50.24;97492.27;108535;1255;94514;-76
2023/06/22 09:25:36;;;;;;;14.80;12.50;;;;;;;33.08;49.90;97489.91;108206;1256;100815;-78
2023/06/22 09:28:05;;;;;;;15.10;12.60;;;;;;;33.29;49.73;97494.19;108472;1255;94310;-77
2023/06/22 09:30:34;;;;;;;18.80;13.50;;;;;;;33.40;49.46;97487.29;108516;1257;94390;-78
2023/06/22 09:33:01;;;;;;;14.80;11.50;;;;;;;33.41;48.71;97485.02;108544;1255;102713;-78
2023/06/22 09:35:29;;;;;;;13.80;12.30;;;;;;;33.37;48.67;97484.34;108446;1257;94437;-80
2023/06/22 09:37:55;;;;;;;12.60;11.20;;;;;;;33.40;48.99;97483.38;108307;1256;94706;-77
2023/06/22 09:40:21;;;;;;;11.40;10.20;;;;;;;33.21;48.71;97478.11;108535;1255;94308;-77
2023/06/22 09:42:59;;;;;;;13.90;10.50;;;;;;;32.74;48.69;97482.20;108851;1250;94585;-79
2023/06/22 09:45:35;;;;;;;13.20;11.70;;;;;;;32.43;49.12;97483.92;108066;1259;101316;-76
2023/06/22 09:48:24;;;;;;;13.10;11.10;;;;;;;32.37;49.19;97489.89;108215;1259;101524;-75
2023/06/22 09:50:53;;;;;;;12.80;11.30;;;;;;;32.29;48.87;97489.88;107788;1267;99721;-79
2023/06/22 09:53:19;;;;;;;12.40;11.30;;;;;;;32.21;48.72;97489.39;107810;1267;94665;-77
2023/06/22 09:55:54;;;;;;;12.50;11.30;;;;;;;32.05;48.60;97487.88;107826;1267;94529;-79
2023/06/22 09:58:20;;;;;;;13.90;12.50;;;;;;;31.81;49.02;97489.25;107812;1266;102270;-77
2023/06/22 10:00:47;;;;;;;17.30;12.70;;;;;;;31.60;49.17;97489.94;107800;1266;94381;-77
2023/06/22 10:03:19;;;;;;;14.90;12.90;;;;;;;31.51;49.45;97493.92;107796;1267;94736;-77
2023/06/22 10:05:53;;;;;;;17.60;13.30;;;;;;;31.40;49.38;97486.02;107511;1267;95188;-77
2023/06/22 10:08:31;;;;;;;14.20;12.60;;;;;;;31.16;49.54;97492.40;107820;1266;94623;-78
2023/06/22 10:11:01;;;;;;;17.00;14.00;;;;;;;31.03;49.98;97489.85;107828;1263;103839;-80
2023/06/22 10:13:27;;;;;;;15.20;13.80;;;;;;;31.23;49.73;97486.85;107604;1267;101436;-77
2023/06/22 10:18:38;;;;;;;15.80;14.10;;;;;;;31.83;48.24;97484.36;107858;1265;94403;-76
2023/06/22 10:21:05;;;;;;;16.10;13.70;;;;;;;31.95;48.47;97483.55;107742;1264;94759;-79
2023/06/22 10:23:41;;;;;;;15.90;14.40;;;;;;;31.94;48.93;97482.95;107904;1265;94654;-77
2023/06/22 10:26:08;;;;;;;15.60;14.00;;;;;;;31.93;48.25;97480.69;107889;1264;101942;-78
2023/06/22 10:28:56;;;;;;;16.80;14.60;;;;;;;31.97;48.29;97479.17;108112;1254;99227;-76
2023/06/22 10:31:22;;;;;;;19.10;16.00;;;;;;;31.92;48.01;97478.59;108751;1253;94308;-76
2023/06/22 10:33:50;;;;;;;17.10;15.40;;;;;;;31.76;47.64;97479.52;108708;1254;94289;-77
2023/06/22 10:39:15;;;;;;;18.60;16.80;;;;;;;30.90;48.46;97473.38;108190;1260;100187;-76
2023/06/22 10:42:03;;;;;;;17.10;15.60;;;;;;;30.67;49.03;97474.17;108153;1259;95215;-77
2023/06/22 10:44:30;;;;;;;18.70;16.80;;;;;;;30.81;49.24;97472.58;107992;1260;94249;-76
2023/06/22 10:52:05;;;;;;;17.40;15.80;;;;;;;31.36;48.63;97470.68;107737;1268;101225;-77
2023/06/22 10:55:11;;;;;;;16.30;14.70;;;;;;;31.55;47.95;97466.89;107627;1267;101747;-76
2023/06/22 10:57:53;;;;;;;18.20;15.70;;;;;;;31.74;48.00;97459.09;107545;1266;100280;-76
2023/06/22 11:00:49;;;;;;;;;;;;;;;;;;;;;
2023/06/22 11:03:59;;;;;;;19.10;17.40;;;;;;;31.84;47.92;97458.48;107809;1266;94232;-76
2023/06/22 11:06:44;;;;;;;18.70;16.80;;;;;;;31.60;47.39;97451.83;107758;1267;102291;-79
2023/06/22 11:09:18;;;;;;;21.30;17.50;;;;;;;31.54;48.23;97454.00;107725;1265;101644;-76
2023/06/22 11:11:50;;;;;;;19.30;17.40;;;;;;;31.59;48.05;97447.58;107811;1265;100238;-76
2023/06/22 11:14:25;;;;;;;22.00;19.60;;;;;;;31.72;48.17;97443.89;107824;1263;94405;-76
2023/06/22 11:17:16;;;;;;;20.40;18.40;;;;;;;31.74;47.10;97441.90;107882;1262;95290;-80
2023/06/22 11:19:44;;;;;;;21.00;19.10;;;;;;;31.66;47.32;97447.20;108143;1258;94452;-80
2023/06/22 11:22:27;;;;;;;21.40;18.80;;;;;;;31.55;47.57;97444.64;108424;1254;100425;-76
2023/06/22 11:24:53;;;;;;;21.30;19.20;;;;;;;31.52;47.49;97445.23;108544;1254;108463;-76
2023/06/22 11:27:25;;;;;;;21.40;19.40;;;;;;;31.60;46.90;97446.32;108551;1254;94612;-76
2023/06/22 11:29:52;;;;;;;21.00;19.00;;;;;;;31.60;46.41;97439.63;108537;1254;94719;-76
2023/06/22 11:32:19;;;;;;;21.00;19.00;;;;;;;31.43;46.68;97436.41;108562;1254;102110;-77
2023/06/22 11:34:54;;;;;;;22.40;20.20;;;;;;;31.22;46.86;97434.65;108566;1258;94489;-78
2023/06/22 11:37:20;;;;;;;21.50;19.40;;;;;;;31.06;46.72;97434.88;108375;1254;100142;-78
2023/06/22 11:39:47;;;;;;;22.50;20.30;;;;;;;31.04;46.94;97431.05;108618;1251;94681;-77
2023/06/22 11:42:16;;;;;;;23.50;21.00;;;;;;;31.26;48.08;97428.79;108893;1251;94486;-76
2023/06/22 11:44:43;;;;;;;23.20;20.80;;;;;;;31.41;47.78;97428.29;108696;1251;94705;-78
2023/06/22 11:47:09;;;;;;;22.70;20.40;;;;;;;31.50;47.57;97427.90;108983;1253;94317;-81
2023/06/22 11:49:42;;;;;;;23.00;20.80;;;;;;;31.68;47.51;97427.49;108963;1251;94664;-76
2023/06/22 11:52:08;;;;;;;23.50;21.20;;;;;;;31.75;47.51;97422.55;108738;1251;94284;-77
2023/06/22 11:54:44;;;;;;;23.30;20.50;;;;;;;31.66;47.12;97417.86;108887;1251;94367;-78
2023/06/22 11:57:10;;;;;;;22.30;20.00;;;;;;;31.59;47.25;97420.30;108731;1254;112000;-76
2023/06/22 11:59:36;;;;;;;23.30;21.20;;;;;;;31.55;47.45;97417.39;108450;1254;94568;-80
2023/06/22 12:02:09;;;;;;;22.60;20.30;;;;;;;31.46;47.22;97417.02;108689;1254;94553;-76
2023/06/22 12:04:35;;;;;;;22.80;20.50;;;;;;;31.34;47.34;97413.80;108298;1254;94389;-79
2023/06/22 12:07:02;;;;;;;26.30;21.20;;;;;;;31.24;47.63;97414.63;108730;1254;94445;-76
2023/06/22 12:12:37;;;;;;;22.60;20.40;;;;;;;30.91;47.72;97409.80;108742;1254;100395;-76
2023/06/22 12:15:31;;;;;;;23.10;20.60;;;;;;;30.79;47.58;97410.93;108530;1254;98814;-76
2023/06/22 12:18:03;;;;;;;24.00;21.70;;;;;;;30.80;48.02;97405.64;108720;1254;94330;-76
2023/06/22 12:23:20;;;;;;;23.00;20.70;;;;;;;31.31;47.69;97404.62;108263;1257;102334;-78
2023/06/22 12:25:49;;;;;;;22.30;20.10;;;;;;;31.55;47.70;97407.81;108333;1261;94483;-77
2023/06/22 12:28:24;;;;;;;22.20;20.00;;;;;;;31.71;47.18;97403.69;108365;1257;100152;-76
2023/06/22 12:30:50;;;;;;;23.20;20.90;;;;;;;31.84;47.11;97398.27;108372;1256;94613;-77
2023/06/22 12:33:26;;;;;;;22.00;19.40;;;;;;;31.96;46.76;97395.30;108431;1256;94763;-75
2023/06/22 12:36:01;;;;;;;20.60;17.60;;;;;;;32.07;46.01;97394.55;108418;1257;102417;-75
2023/06/22 12:38:28;;;;;;;19.70;17.70;;;;;;;32.16;46.06;97397.04;108430;1257;101706;-76
2023/06/22 12:40:54;;;;;;;18.60;16.70;;;;;;;32.09;45.67;97395.63;108378;1257;94521;-77
2023/06/22 12:43:21;;;;;;;17.90;16.20;;;;;;;32.00;45.48;97394.70;108407;1260;94416;-78
2023/06/22 12:45:47;;;;;;;16.80;15.30;;;;;;;32.07;45.48;97400.60;108478;1256;95277;-77
2023/06/22 12:48:13;;;;;;;17.20;15.50;;;;;;;32.11;45.25;97402.57;108253;1258;101904;-75
2023/06/22 12:51:27;;;;;;;17.70;15.70;;;;;;;32.11;44.51;97399.17;108386;1257;98457;-76
2023/06/22 12:54:00;;;;;;;16.70;14.80;;;;;;;31.84;44.91;97392.05;108366;1256;95295;-76
2023/06/22 12:56:27;;;;;;;17.40;14.40;;;;;;;31.76;45.25;97389.09;108167;1260;94335;-76
2023/06/22 12:58:53;;;;;;;17.40;15.80;;;;;;;31.77;45.20;97386.40;108057;1259;94695;-79
2023/06/22 13:01:22;;;;;;;17.00;15.40;;;;;;;31.82;45.16;97381.40;108445;1254;94370;-78
2023/06/22 13:03:58;;;;;;;17.30;15.50;;;;;;;31.85;44.95;97372.70;108496;1254;100114;-77
2023/06/22 13:06:34;;;;;;;17.20;15.40;;;;;;;31.79;45.38;97375.40;108608;1254;94384;-77
2023/06/22 13:09:00;;;;;;;16.30;14.80;;;;;;;31.79;45.02;97368.20;108315;1253;94343;-77
2023/06/22 13:11:30;;;;;;;16.20;14.40;;;;;;;31.81;45.18;97360.70;108580;1254;94307;-76
2023/06/22 13:13:56;;;;;;;16.50;14.90;;;;;;;31.91;45.46;97358.23;108294;1258;100363;-77
2023/06/22 13:16:23;;;;;;;16.30;14.60;;;;;;;32.12;45.89;97359.05;108270;1257;94371;-76
2023/06/22 13:19:04;;;;;;;15.90;14.30;;;;;;;32.17;45.21;97353.30;108568;1254;94316;-76
2023/06/22 13:21:31;;;;;;;16.20;14.80;;;;;;;32.27;45.47;97359.98;108572;1254;94373;-77
2023/06/22 13:24:00;;;;;;;16.70;14.70;;;;;;;32.39;45.97;97362.98;108570;1254;94577;-76
2023/06/22 13:26:28;;;;;;;15.50;13.90;;;;;;;32.51;45.77;97360.07;108585;1255;100685;-80